sensor_id;sensor_type;location;lat;lon;timestamp;P1;durP1;ratioP1;P2;durP2;ratioP2
16878;SDS011;8556;52.218;9.884;2023-04-01T00:00:31;2.03;;;0.87;;
16878;SDS011;8556;52.218;9.884;2023-04-01T00:02:58;2.20;;;1.17;;
16878;SDS011;8556;52.218;9.884;2023-04-01T00:05:26;2.27;;;1.40;;
16878;SDS011;8556;52.218;9.884;2023-04-01T00:07:53;5.07;;;1.20;;
16878;SDS011;8556;52.218;9.884;2023-04-01T00:10:20;4.03;;;0.90;;
16878;SDS011;8556;52.218;9.884;2023-04-01T00:12:47;1.20;;;0.90;;
16878;SDS011;8556;52.218;9.884;2023-04-01T00:15:15;3.30;;;0.90;;
16878;SDS011;8556;52.218;9.884;2023-04-01T00:17:42;1.33;;;0.67;;
16878;SDS011;8556;52.218;9.884;2023-04-01T00:20:10;3.20;;;1.00;;
16878;SDS011;8556;52.218;9.884;2023-04-01T00:22:39;2.23;;;1.00;;
16878;SDS011;8556;52.218;9.884;2023-04-01T00:25:06;1.53;;;0.87;;
16878;SDS011;8556;52.218;9.884;2023-04-01T00:27:33;2.67;;;0.93;;
16878;SDS011;8556;52.218;9.884;2023-04-01T00:30:00;3.20;;;1.03;;
16878;SDS011;8556;52.218;9.884;2023-04-01T00:32:29;3.97;;;0.90;;
16878;SDS011;8556;52.218;9.884;2023-04-01T00:34:56;2.50;;;0.87;;
16878;SDS011;8556;52.218;9.884;2023-04-01T00:37:24;3.03;;;0.80;;
16878;SDS011;8556;52.218;9.884;2023-04-01T00:39:51;1.43;;;0.87;;
16878;SDS011;8556;52.218;9.884;2023-04-01T00:42:18;6.70;;;0.93;;
16878;SDS011;8556;52.218;9.884;2023-04-01T00:44:47;1.37;;;0.57;;
16878;SDS011;8556;52.218;9.884;2023-04-01T00:47:16;2.63;;;0.90;;
16878;SDS011;8556;52.218;9.884;2023-04-01T00:49:45;2.97;;;0.97;;
16878;SDS011;8556;52.218;9.884;2023-04-01T00:52:17;0.60;;;0.40;;
16878;SDS011;8556;52.218;9.884;2023-04-01T00:54:47;2.20;;;0.73;;
16878;SDS011;8556;52.218;9.884;2023-04-01T00:57:20;2.30;;;0.67;;
16878;SDS011;8556;52.218;9.884;2023-04-01T00:59:50;4.37;;;0.80;;
16878;SDS011;8556;52.218;9.884;2023-04-01T01:02:20;1.53;;;0.70;;
16878;SDS011;8556;52.218;9.884;2023-04-01T01:04:50;2.10;;;0.83;;
16878;SDS011;8556;52.218;9.884;2023-04-01T01:07:20;3.13;;;1.13;;
16878;SDS011;8556;52.218;9.884;2023-04-01T01:09:55;2.20;;;0.70;;
16878;SDS011;8556;52.218;9.884;2023-04-01T01:12:27;3.07;;;0.73;;
16878;SDS011;8556;52.218;9.884;2023-04-01T01:15:00;3.20;;;0.50;;
16878;SDS011;8556;52.218;9.884;2023-04-01T01:17:36;0.77;;;0.50;;
16878;SDS011;8556;52.218;9.884;2023-04-01T01:20:18;2.23;;;0.73;;
16878;SDS011;8556;52.218;9.884;2023-04-01T01:23:12;1.97;;;0.70;;
16878;SDS011;8556;52.218;9.884;2023-04-01T01:26:30;1.43;;;0.60;;
16878;SDS011;8556;52.218;9.884;2023-04-01T01:29:08;1.23;;;0.50;;
16878;SDS011;8556;52.218;9.884;2023-04-01T01:31:46;1.93;;;0.43;;
16878;SDS011;8556;52.218;9.884;2023-04-01T01:34:21;1.40;;;0.40;;
16878;SDS011;8556;52.218;9.884;2023-04-01T01:36:59;2.93;;;0.40;;
16878;SDS011;8556;52.218;9.884;2023-04-01T01:39:30;1.87;;;0.70;;
16878;SDS011;8556;52.218;9.884;2023-04-01T01:42:01;1.63;;;0.60;;
16878;SDS011;8556;52.218;9.884;2023-04-01T01:44:31;1.83;;;0.40;;
16878;SDS011;8556;52.218;9.884;2023-04-01T01:46:59;0.50;;;0.30;;
16878;SDS011;8556;52.218;9.884;2023-04-01T01:49:27;1.80;;;0.43;;
16878;SDS011;8556;52.218;9.884;2023-04-01T01:51:57;1.50;;;0.50;;
16878;SDS011;8556;52.218;9.884;2023-04-01T01:54:24;0.70;;;0.37;;
16878;SDS011;8556;52.218;9.884;2023-04-01T01:57:03;0.87;;;0.50;;
16878;SDS011;8556;52.218;9.884;2023-04-01T01:59:33;1.03;;;0.40;;
16878;SDS011;8556;52.218;9.884;2023-04-01T02:02:04;4.00;;;0.47;;
16878;SDS011;8556;52.218;9.884;2023-04-01T02:04:33;1.17;;;0.40;;
16878;SDS011;8556;52.218;9.884;2023-04-01T02:07:03;1.97;;;0.67;;
16878;SDS011;8556;52.218;9.884;2023-04-01T02:09:33;1.70;;;0.53;;
16878;SDS011;8556;52.218;9.884;2023-04-01T02:12:02;1.70;;;0.50;;
16878;SDS011;8556;52.218;9.884;2023-04-01T02:14:34;1.20;;;0.60;;
16878;SDS011;8556;52.218;9.884;2023-04-01T02:17:07;1.03;;;0.60;;
16878;SDS011;8556;52.218;9.884;2023-04-01T02:19:38;0.97;;;0.37;;
16878;SDS011;8556;52.218;9.884;2023-04-01T02:22:09;1.97;;;0.90;;
16878;SDS011;8556;52.218;9.884;2023-04-01T02:24:40;1.10;;;0.40;;
16878;SDS011;8556;52.218;9.884;2023-04-01T02:27:10;1.10;;;0.63;;
16878;SDS011;8556;52.218;9.884;2023-04-01T02:29:38;0.50;;;0.43;;
16878;SDS011;8556;52.218;9.884;2023-04-01T02:32:05;0.97;;;0.50;;
16878;SDS011;8556;52.218;9.884;2023-04-01T02:34:33;2.57;;;0.70;;
16878;SDS011;8556;52.218;9.884;2023-04-01T02:37:00;2.87;;;0.97;;
16878;SDS011;8556;52.218;9.884;2023-04-01T02:39:29;1.97;;;0.60;;
16878;SDS011;8556;52.218;9.884;2023-04-01T02:41:56;3.17;;;0.63;;
16878;SDS011;8556;52.218;9.884;2023-04-01T02:44:23;2.63;;;0.50;;
16878;SDS011;8556;52.218;9.884;2023-04-01T02:46:50;0.87;;;0.40;;
16878;SDS011;8556;52.218;9.884;2023-04-01T02:49:18;1.83;;;0.60;;
16878;SDS011;8556;52.218;9.884;2023-04-01T02:51:44;2.53;;;0.60;;
16878;SDS011;8556;52.218;9.884;2023-04-01T02:54:12;1.77;;;0.87;;
16878;SDS011;8556;52.218;9.884;2023-04-01T02:56:40;0.83;;;0.40;;
16878;SDS011;8556;52.218;9.884;2023-04-01T02:59:07;0.77;;;0.37;;
16878;SDS011;8556;52.218;9.884;2023-04-01T03:01:34;1.53;;;0.43;;
16878;SDS011;8556;52.218;9.884;2023-04-01T03:04:01;0.87;;;0.40;;
16878;SDS011;8556;52.218;9.884;2023-04-01T03:06:28;0.80;;;0.60;;
16878;SDS011;8556;52.218;9.884;2023-04-01T03:08:55;1.50;;;0.43;;
16878;SDS011;8556;52.218;9.884;2023-04-01T03:11:22;2.37;;;1.33;;
16878;SDS011;8556;52.218;9.884;2023-04-01T03:13:52;2.13;;;0.60;;
16878;SDS011;8556;52.218;9.884;2023-04-01T03:16:19;1.73;;;1.13;;
16878;SDS011;8556;52.218;9.884;2023-04-01T03:18:46;2.87;;;0.80;;
16878;SDS011;8556;52.218;9.884;2023-04-01T03:21:15;0.77;;;0.60;;
16878;SDS011;8556;52.218;9.884;2023-04-01T03:23:42;1.40;;;0.47;;
16878;SDS011;8556;52.218;9.884;2023-04-01T03:26:10;2.23;;;0.40;;
16878;SDS011;8556;52.218;9.884;2023-04-01T03:28:37;0.70;;;0.70;;
16878;SDS011;8556;52.218;9.884;2023-04-01T03:31:05;1.43;;;0.60;;
16878;SDS011;8556;52.218;9.884;2023-04-01T03:33:32;2.40;;;0.70;;
16878;SDS011;8556;52.218;9.884;2023-04-01T03:35:59;2.13;;;0.53;;
16878;SDS011;8556;52.218;9.884;2023-04-01T03:38:26;2.40;;;0.57;;
16878;SDS011;8556;52.218;9.884;2023-04-01T03:40:53;0.47;;;0.40;;
16878;SDS011;8556;52.218;9.884;2023-04-01T03:43:20;0.80;;;0.60;;
16878;SDS011;8556;52.218;9.884;2023-04-01T03:45:48;0.53;;;0.37;;
16878;SDS011;8556;52.218;9.884;2023-04-01T03:48:18;1.10;;;0.67;;
16878;SDS011;8556;52.218;9.884;2023-04-01T03:50:45;1.13;;;0.53;;
16878;SDS011;8556;52.218;9.884;2023-04-01T03:53:13;0.77;;;0.60;;
16878;SDS011;8556;52.218;9.884;2023-04-01T03:55:40;1.80;;;0.50;;
16878;SDS011;8556;52.218;9.884;2023-04-01T03:58:07;1.73;;;0.50;;
16878;SDS011;8556;52.218;9.884;2023-04-01T04:00:34;0.50;;;0.40;;
16878;SDS011;8556;52.218;9.884;2023-04-01T04:03:02;0.93;;;0.47;;
16878;SDS011;8556;52.218;9.884;2023-04-01T04:05:30;1.43;;;0.57;;
16878;SDS011;8556;52.218;9.884;2023-04-01T04:07:57;2.97;;;0.57;;
16878;SDS011;8556;52.218;9.884;2023-04-01T04:10:24;0.87;;;0.50;;
16878;SDS011;8556;52.218;9.884;2023-04-01T04:12:51;1.90;;;0.60;;
16878;SDS011;8556;52.218;9.884;2023-04-01T04:15:18;2.47;;;0.60;;
16878;SDS011;8556;52.218;9.884;2023-04-01T04:17:45;1.17;;;0.70;;
16878;SDS011;8556;52.218;9.884;2023-04-01T04:20:13;0.70;;;0.50;;
16878;SDS011;8556;52.218;9.884;2023-04-01T04:22:42;0.87;;;0.70;;
16878;SDS011;8556;52.218;9.884;2023-04-01T04:25:08;1.20;;;0.70;;
16878;SDS011;8556;52.218;9.884;2023-04-01T04:27:35;1.23;;;0.80;;
16878;SDS011;8556;52.218;9.884;2023-04-01T04:30:03;0.40;;;0.40;;
16878;SDS011;8556;52.218;9.884;2023-04-01T04:32:33;1.00;;;0.50;;
16878;SDS011;8556;52.218;9.884;2023-04-01T04:35:00;2.20;;;0.50;;
16878;SDS011;8556;52.218;9.884;2023-04-01T04:37:27;2.20;;;0.80;;
16878;SDS011;8556;52.218;9.884;2023-04-01T04:39:55;1.30;;;0.63;;
16878;SDS011;8556;52.218;9.884;2023-04-01T04:42:22;3.43;;;0.70;;
16878;SDS011;8556;52.218;9.884;2023-04-01T04:44:49;2.23;;;0.70;;
16878;SDS011;8556;52.218;9.884;2023-04-01T04:47:16;4.27;;;0.60;;
16878;SDS011;8556;52.218;9.884;2023-04-01T04:49:43;1.27;;;0.63;;
16878;SDS011;8556;52.218;9.884;2023-04-01T04:52:10;1.90;;;0.60;;
16878;SDS011;8556;52.218;9.884;2023-04-01T04:54:37;1.50;;;0.70;;
16878;SDS011;8556;52.218;9.884;2023-04-01T04:57:05;1.33;;;0.63;;
16878;SDS011;8556;52.218;9.884;2023-04-01T04:59:32;0.73;;;0.53;;
16878;SDS011;8556;52.218;9.884;2023-04-01T05:02:00;1.83;;;0.63;;
16878;SDS011;8556;52.218;9.884;2023-04-01T05:04:27;3.43;;;1.00;;
16878;SDS011;8556;52.218;9.884;2023-04-01T05:06:54;2.90;;;0.80;;
16878;SDS011;8556;52.218;9.884;2023-04-01T05:09:21;1.90;;;0.60;;
16878;SDS011;8556;52.218;9.884;2023-04-01T05:11:48;2.37;;;0.60;;
16878;SDS011;8556;52.218;9.884;2023-04-01T05:14:17;5.10;;;1.90;;
16878;SDS011;8556;52.218;9.884;2023-04-01T05:16:44;1.00;;;0.90;;
16878;SDS011;8556;52.218;9.884;2023-04-01T05:19:11;3.27;;;1.60;;
16878;SDS011;8556;52.218;9.884;2023-04-01T05:21:37;0.77;;;0.40;;
16878;SDS011;8556;52.218;9.884;2023-04-01T05:24:07;0.90;;;0.50;;
16878;SDS011;8556;52.218;9.884;2023-04-01T05:26:35;0.87;;;0.47;;
16878;SDS011;8556;52.218;9.884;2023-04-01T05:29:03;1.20;;;0.77;;
16878;SDS011;8556;52.218;9.884;2023-04-01T05:31:31;1.00;;;0.73;;
16878;SDS011;8556;52.218;9.884;2023-04-01T05:33:58;0.77;;;0.57;;
16878;SDS011;8556;52.218;9.884;2023-04-01T05:36:25;2.10;;;0.80;;
16878;SDS011;8556;52.218;9.884;2023-04-01T05:38:54;1.47;;;0.70;;
16878;SDS011;8556;52.218;9.884;2023-04-01T05:41:21;1.90;;;0.70;;
16878;SDS011;8556;52.218;9.884;2023-04-01T05:43:48;2.80;;;0.77;;
16878;SDS011;8556;52.218;9.884;2023-04-01T05:46:16;1.87;;;1.00;;
16878;SDS011;8556;52.218;9.884;2023-04-01T05:48:44;0.77;;;0.77;;
16878;SDS011;8556;52.218;9.884;2023-04-01T05:51:12;2.60;;;1.10;;
16878;SDS011;8556;52.218;9.884;2023-04-01T05:53:39;2.43;;;0.83;;
16878;SDS011;8556;52.218;9.884;2023-04-01T05:56:07;2.83;;;1.60;;
16878;SDS011;8556;52.218;9.884;2023-04-01T05:58:34;2.00;;;1.53;;
16878;SDS011;8556;52.218;9.884;2023-04-01T06:01:01;4.37;;;2.43;;
16878;SDS011;8556;52.218;9.884;2023-04-01T06:03:30;3.87;;;1.33;;
16878;SDS011;8556;52.218;9.884;2023-04-01T06:05:58;0.70;;;0.70;;
16878;SDS011;8556;52.218;9.884;2023-04-01T06:08:27;3.03;;;1.33;;
16878;SDS011;8556;52.218;9.884;2023-04-01T06:11:00;3.17;;;1.00;;
16878;SDS011;8556;52.218;9.884;2023-04-01T06:13:49;2.70;;;0.90;;
16878;SDS011;8556;52.218;9.884;2023-04-01T06:16:32;1.03;;;0.93;;
16878;SDS011;8556;52.218;9.884;2023-04-01T06:19:10;1.07;;;1.00;;
16878;SDS011;8556;52.218;9.884;2023-04-01T06:27:51;1.40;;;1.30;;
16878;SDS011;8556;52.218;9.884;2023-04-01T06:30:34;4.87;;;1.60;;
16878;SDS011;8556;52.218;9.884;2023-04-01T06:33:09;1.00;;;0.90;;
16878;SDS011;8556;52.218;9.884;2023-04-01T06:36:02;6.13;;;2.67;;
16878;SDS011;8556;52.218;9.884;2023-04-01T06:38:53;2.07;;;1.20;;
16878;SDS011;8556;52.218;9.884;2023-04-01T06:44:46;2.23;;;0.77;;
16878;SDS011;8556;52.218;9.884;2023-04-01T06:47:23;3.03;;;1.73;;
16878;SDS011;8556;52.218;9.884;2023-04-01T06:50:00;1.20;;;0.83;;
16878;SDS011;8556;52.218;9.884;2023-04-01T06:52:36;3.57;;;0.50;;
16878;SDS011;8556;52.218;9.884;2023-04-01T06:55:18;2.20;;;0.80;;
16878;SDS011;8556;52.218;9.884;2023-04-01T06:57:54;1.63;;;0.87;;
16878;SDS011;8556;52.218;9.884;2023-04-01T07:00:25;1.43;;;0.60;;
16878;SDS011;8556;52.218;9.884;2023-04-01T07:02:56;3.73;;;0.80;;
16878;SDS011;8556;52.218;9.884;2023-04-01T07:05:31;1.27;;;0.70;;
16878;SDS011;8556;52.218;9.884;2023-04-01T07:08:00;2.00;;;0.70;;
16878;SDS011;8556;52.218;9.884;2023-04-01T07:10:32;2.37;;;0.90;;
16878;SDS011;8556;52.218;9.884;2023-04-01T07:13:09;1.53;;;0.60;;
16878;SDS011;8556;52.218;9.884;2023-04-01T07:15:41;1.50;;;0.67;;
16878;SDS011;8556;52.218;9.884;2023-04-01T07:18:12;1.20;;;0.83;;
16878;SDS011;8556;52.218;9.884;2023-04-01T07:20:42;1.23;;;0.70;;
16878;SDS011;8556;52.218;9.884;2023-04-01T07:23:11;1.97;;;0.63;;
16878;SDS011;8556;52.218;9.884;2023-04-01T07:25:47;2.60;;;0.90;;
16878;SDS011;8556;52.218;9.884;2023-04-01T07:28:22;3.00;;;0.80;;
16878;SDS011;8556;52.218;9.884;2023-04-01T07:30:52;1.53;;;0.80;;
16878;SDS011;8556;52.218;9.884;2023-04-01T07:33:29;1.03;;;0.80;;
16878;SDS011;8556;52.218;9.884;2023-04-01T07:36:05;2.80;;;1.10;;
16878;SDS011;8556;52.218;9.884;2023-04-01T07:38:39;2.03;;;0.70;;
16878;SDS011;8556;52.218;9.884;2023-04-01T07:41:18;1.40;;;0.50;;
16878;SDS011;8556;52.218;9.884;2023-04-01T07:43:59;0.80;;;0.50;;
16878;SDS011;8556;52.218;9.884;2023-04-01T07:46:37;0.70;;;0.50;;
16878;SDS011;8556;52.218;9.884;2023-04-01T07:49:15;0.80;;;0.70;;
16878;SDS011;8556;52.218;9.884;2023-04-01T07:51:49;1.00;;;0.77;;
16878;SDS011;8556;52.218;9.884;2023-04-01T07:54:29;2.63;;;0.80;;
16878;SDS011;8556;52.218;9.884;2023-04-01T07:57:06;2.40;;;0.43;;
16878;SDS011;8556;52.218;9.884;2023-04-01T07:59:41;1.40;;;0.60;;
16878;SDS011;8556;52.218;9.884;2023-04-01T08:02:19;0.80;;;0.40;;
16878;SDS011;8556;52.218;9.884;2023-04-01T08:04:57;1.27;;;0.60;;
16878;SDS011;8556;52.218;9.884;2023-04-01T08:07:36;1.57;;;0.70;;
16878;SDS011;8556;52.218;9.884;2023-04-01T08:10:11;2.47;;;0.87;;
16878;SDS011;8556;52.218;9.884;2023-04-01T08:12:45;1.73;;;0.50;;
16878;SDS011;8556;52.218;9.884;2023-04-01T08:15:21;0.87;;;0.60;;
16878;SDS011;8556;52.218;9.884;2023-04-01T08:17:58;1.10;;;0.50;;
16878;SDS011;8556;52.218;9.884;2023-04-01T08:20:38;0.50;;;0.50;;
16878;SDS011;8556;52.218;9.884;2023-04-01T08:23:11;0.50;;;0.50;;
16878;SDS011;8556;52.218;9.884;2023-04-01T08:25:43;0.87;;;0.40;;
16878;SDS011;8556;52.218;9.884;2023-04-01T08:28:16;0.80;;;0.40;;
16878;SDS011;8556;52.218;9.884;2023-04-01T08:30:49;0.70;;;0.60;;
16878;SDS011;8556;52.218;9.884;2023-04-01T08:33:21;0.60;;;0.60;;
16878;SDS011;8556;52.218;9.884;2023-04-01T08:35:53;0.43;;;0.33;;
16878;SDS011;8556;52.218;9.884;2023-04-01T08:38:26;1.80;;;0.50;;
16878;SDS011;8556;52.218;9.884;2023-04-01T08:41:00;1.60;;;0.63;;
16878;SDS011;8556;52.218;9.884;2023-04-01T08:49:48;1.40;;;0.50;;
16878;SDS011;8556;52.218;9.884;2023-04-01T08:52:29;0.47;;;0.30;;
16878;SDS011;8556;52.218;9.884;2023-04-01T08:55:04;0.80;;;0.43;;
16878;SDS011;8556;52.218;9.884;2023-04-01T08:57:49;0.63;;;0.40;;
16878;SDS011;8556;52.218;9.884;2023-04-01T09:00:33;0.83;;;0.80;;
16878;SDS011;8556;52.218;9.884;2023-04-01T09:03:14;0.93;;;0.83;;
16878;SDS011;8556;52.218;9.884;2023-04-01T09:06:11;1.47;;;0.50;;
16878;SDS011;8556;52.218;9.884;2023-04-01T09:08:59;2.47;;;0.70;;
16878;SDS011;8556;52.218;9.884;2023-04-01T09:11:53;1.17;;;0.33;;
16878;SDS011;8556;52.218;9.884;2023-04-01T09:14:41;1.00;;;0.40;;
16878;SDS011;8556;52.218;9.884;2023-04-01T09:17:29;1.43;;;0.43;;
16878;SDS011;8556;52.218;9.884;2023-04-01T09:26:17;0.30;;;0.30;;
16878;SDS011;8556;52.218;9.884;2023-04-01T09:28:55;0.50;;;0.30;;
16878;SDS011;8556;52.218;9.884;2023-04-01T09:31:41;1.30;;;0.30;;
16878;SDS011;8556;52.218;9.884;2023-04-01T09:34:25;1.53;;;0.50;;
16878;SDS011;8556;52.218;9.884;2023-04-01T09:37:19;1.10;;;0.43;;
16878;SDS011;8556;52.218;9.884;2023-04-01T09:39:55;2.07;;;0.53;;
16878;SDS011;8556;52.218;9.884;2023-04-01T09:42:42;1.70;;;0.33;;
16878;SDS011;8556;52.218;9.884;2023-04-01T09:45:16;0.60;;;0.40;;
16878;SDS011;8556;52.218;9.884;2023-04-01T09:47:59;0.90;;;0.47;;
16878;SDS011;8556;52.218;9.884;2023-04-01T09:50:39;0.40;;;0.40;;
16878;SDS011;8556;52.218;9.884;2023-04-01T09:53:17;0.83;;;0.50;;
16878;SDS011;8556;52.218;9.884;2023-04-01T09:56:10;0.83;;;0.50;;
16878;SDS011;8556;52.218;9.884;2023-04-01T09:59:15;0.60;;;0.40;;
16878;SDS011;8556;52.218;9.884;2023-04-01T10:05:25;0.87;;;0.40;;
16878;SDS011;8556;52.218;9.884;2023-04-01T10:08:24;0.40;;;0.30;;
16878;SDS011;8556;52.218;9.884;2023-04-01T10:17:37;0.53;;;0.50;;
16878;SDS011;8556;52.218;9.884;2023-04-01T10:20:26;1.40;;;0.40;;
16878;SDS011;8556;52.218;9.884;2023-04-01T10:23:26;1.67;;;0.40;;
16878;SDS011;8556;52.218;9.884;2023-04-01T10:29:13;0.30;;;0.30;;
16878;SDS011;8556;52.218;9.884;2023-04-01T10:38:22;2.67;;;0.50;;
16878;SDS011;8556;52.218;9.884;2023-04-01T10:44:37;0.63;;;0.40;;
16878;SDS011;8556;52.218;9.884;2023-04-01T10:47:29;0.70;;;0.60;;
16878;SDS011;8556;52.218;9.884;2023-04-01T10:50:12;0.83;;;0.60;;
16878;SDS011;8556;52.218;9.884;2023-04-01T11:05:34;1.23;;;0.70;;
16878;SDS011;8556;52.218;9.884;2023-04-01T11:14:36;0.87;;;0.73;;
16878;SDS011;8556;52.218;9.884;2023-04-01T11:20:42;0.87;;;0.60;;
16878;SDS011;8556;52.218;9.884;2023-04-01T11:23:36;2.27;;;0.87;;
16878;SDS011;8556;52.218;9.884;2023-04-01T11:26:15;0.73;;;0.70;;
16878;SDS011;8556;52.218;9.884;2023-04-01T11:32:13;1.70;;;0.77;;
16878;SDS011;8556;52.218;9.884;2023-04-01T11:37:47;2.20;;;1.13;;
16878;SDS011;8556;52.218;9.884;2023-04-01T11:40:20;0.70;;;0.60;;
16878;SDS011;8556;52.218;9.884;2023-04-01T11:42:55;0.60;;;0.60;;
16878;SDS011;8556;52.218;9.884;2023-04-01T11:45:33;2.33;;;0.57;;
16878;SDS011;8556;52.218;9.884;2023-04-01T11:48:13;1.27;;;0.97;;
16878;SDS011;8556;52.218;9.884;2023-04-01T11:51:08;1.20;;;0.95;;
16878;SDS011;8556;52.218;9.884;2023-04-01T11:53:50;2.37;;;0.70;;
16878;SDS011;8556;52.218;9.884;2023-04-01T11:56:28;1.70;;;1.17;;
16878;SDS011;8556;52.218;9.884;2023-04-01T11:59:17;0.80;;;0.80;;
16878;SDS011;8556;52.218;9.884;2023-04-01T12:02:16;0.60;;;0.60;;
16878;SDS011;8556;52.218;9.884;2023-04-01T12:04:56;0.50;;;0.50;;
16878;SDS011;8556;52.218;9.884;2023-04-01T12:07:43;0.63;;;0.50;;
16878;SDS011;8556;52.218;9.884;2023-04-01T12:10:19;1.73;;;0.70;;
16878;SDS011;8556;52.218;9.884;2023-04-01T12:12:51;0.63;;;0.63;;
16878;SDS011;8556;52.218;9.884;2023-04-01T12:15:27;0.87;;;0.57;;
16878;SDS011;8556;52.218;9.884;2023-04-01T12:18:05;1.03;;;0.73;;
16878;SDS011;8556;52.218;9.884;2023-04-01T12:20:43;0.50;;;0.40;;
16878;SDS011;8556;52.218;9.884;2023-04-01T12:23:23;0.97;;;0.50;;
16878;SDS011;8556;52.218;9.884;2023-04-01T12:26:15;0.87;;;0.73;;
16878;SDS011;8556;52.218;9.884;2023-04-01T12:29:06;2.37;;;0.60;;
16878;SDS011;8556;52.218;9.884;2023-04-01T12:31:42;0.83;;;0.60;;
16878;SDS011;8556;52.218;9.884;2023-04-01T12:34:27;0.77;;;0.70;;
16878;SDS011;8556;52.218;9.884;2023-04-01T12:37:12;1.53;;;0.70;;
16878;SDS011;8556;52.218;9.884;2023-04-01T12:39:51;1.50;;;0.90;;
16878;SDS011;8556;52.218;9.884;2023-04-01T12:42:32;0.83;;;0.50;;
16878;SDS011;8556;52.218;9.884;2023-04-01T12:45:28;1.43;;;0.40;;
16878;SDS011;8556;52.218;9.884;2023-04-01T12:48:03;0.30;;;0.30;;
16878;SDS011;8556;52.218;9.884;2023-04-01T12:50:56;0.90;;;0.90;;
16878;SDS011;8556;52.218;9.884;2023-04-01T12:53:39;0.30;;;0.30;;
16878;SDS011;8556;52.218;9.884;2023-04-01T12:56:23;1.27;;;0.63;;
16878;SDS011;8556;52.218;9.884;2023-04-01T13:01:57;1.63;;;0.97;;
16878;SDS011;8556;52.218;9.884;2023-04-01T13:07:46;1.53;;;0.90;;
16878;SDS011;8556;52.218;9.884;2023-04-01T13:10:30;0.30;;;0.30;;
16878;SDS011;8556;52.218;9.884;2023-04-01T13:16:13;0.87;;;0.50;;
16878;SDS011;8556;52.218;9.884;2023-04-01T13:18:47;0.60;;;0.50;;
16878;SDS011;8556;52.218;9.884;2023-04-01T13:21:24;1.23;;;1.13;;
16878;SDS011;8556;52.218;9.884;2023-04-01T13:24:04;0.90;;;0.70;;
16878;SDS011;8556;52.218;9.884;2023-04-01T13:26:45;0.80;;;0.80;;
16878;SDS011;8556;52.218;9.884;2023-04-01T13:29:21;0.90;;;0.90;;
16878;SDS011;8556;52.218;9.884;2023-04-01T13:31:58;1.13;;;0.90;;
16878;SDS011;8556;52.218;9.884;2023-04-01T13:34:35;0.80;;;0.70;;
16878;SDS011;8556;52.218;9.884;2023-04-01T13:37:17;1.40;;;1.30;;
16878;SDS011;8556;52.218;9.884;2023-04-01T13:39:57;3.33;;;1.70;;
16878;SDS011;8556;52.218;9.884;2023-04-01T13:42:40;3.13;;;1.60;;
16878;SDS011;8556;52.218;9.884;2023-04-01T13:45:15;1.60;;;1.50;;
16878;SDS011;8556;52.218;9.884;2023-04-01T13:47:52;3.57;;;2.17;;
16878;SDS011;8556;52.218;9.884;2023-04-01T13:50:44;2.90;;;1.70;;
16878;SDS011;8556;52.218;9.884;2023-04-01T13:57:20;0.70;;;0.50;;
16878;SDS011;8556;52.218;9.884;2023-04-01T14:03:19;0.50;;;0.50;;
16878;SDS011;8556;52.218;9.884;2023-04-01T14:06:02;1.20;;;0.77;;
16878;SDS011;8556;52.218;9.884;2023-04-01T14:08:40;2.50;;;1.40;;
16878;SDS011;8556;52.218;9.884;2023-04-01T14:11:19;1.57;;;1.20;;
16878;SDS011;8556;52.218;9.884;2023-04-01T14:13:56;3.00;;;1.37;;
16878;SDS011;8556;52.218;9.884;2023-04-01T14:19:39;2.20;;;1.50;;
16878;SDS011;8556;52.218;9.884;2023-04-01T14:22:25;1.50;;;1.40;;
16878;SDS011;8556;52.218;9.884;2023-04-01T14:28:01;2.10;;;1.90;;
16878;SDS011;8556;52.218;9.884;2023-04-01T14:30:43;2.17;;;1.77;;
16878;SDS011;8556;52.218;9.884;2023-04-01T14:33:28;1.83;;;1.70;;
16878;SDS011;8556;52.218;9.884;2023-04-01T14:36:09;2.37;;;1.90;;
16878;SDS011;8556;52.218;9.884;2023-04-01T14:39:00;3.20;;;1.80;;
16878;SDS011;8556;52.218;9.884;2023-04-01T14:41:47;3.53;;;1.90;;
16878;SDS011;8556;52.218;9.884;2023-04-01T14:44:18;2.43;;;2.17;;
16878;SDS011;8556;52.218;9.884;2023-04-01T14:47:09;2.07;;;1.97;;
16878;SDS011;8556;52.218;9.884;2023-04-01T14:49:53;1.33;;;1.20;;
16878;SDS011;8556;52.218;9.884;2023-04-01T14:52:32;1.93;;;1.20;;
16878;SDS011;8556;52.218;9.884;2023-04-01T14:55:02;2.53;;;1.50;;
16878;SDS011;8556;52.218;9.884;2023-04-01T14:57:57;1.67;;;1.57;;
16878;SDS011;8556;52.218;9.884;2023-04-01T15:00:26;2.87;;;2.00;;
16878;SDS011;8556;52.218;9.884;2023-04-01T15:02:54;3.33;;;2.10;;
16878;SDS011;8556;52.218;9.884;2023-04-01T15:05:38;2.90;;;2.50;;
16878;SDS011;8556;52.218;9.884;2023-04-01T15:08:17;4.03;;;3.00;;
16878;SDS011;8556;52.218;9.884;2023-04-01T15:10:56;3.60;;;2.47;;
16878;SDS011;8556;52.218;9.884;2023-04-01T15:13:49;3.53;;;2.57;;
16878;SDS011;8556;52.218;9.884;2023-04-01T15:16:34;4.47;;;2.47;;
16878;SDS011;8556;52.218;9.884;2023-04-01T15:19:12;3.10;;;2.13;;
16878;SDS011;8556;52.218;9.884;2023-04-01T15:22:01;1.17;;;1.07;;
16878;SDS011;8556;52.218;9.884;2023-04-01T15:24:44;0.80;;;0.80;;
16878;SDS011;8556;52.218;9.884;2023-04-01T15:27:27;1.20;;;1.00;;
16878;SDS011;8556;52.218;9.884;2023-04-01T15:30:05;1.77;;;0.67;;
16878;SDS011;8556;52.218;9.884;2023-04-01T15:32:50;1.07;;;0.97;;
16878;SDS011;8556;52.218;9.884;2023-04-01T15:35:30;0.20;;;0.20;;
16878;SDS011;8556;52.218;9.884;2023-04-01T15:38:11;0.63;;;0.63;;
16878;SDS011;8556;52.218;9.884;2023-04-01T15:40:51;1.00;;;0.90;;
16878;SDS011;8556;52.218;9.884;2023-04-01T15:43:29;2.37;;;1.70;;
16878;SDS011;8556;52.218;9.884;2023-04-01T15:46:12;2.97;;;2.00;;
16878;SDS011;8556;52.218;9.884;2023-04-01T15:49:09;3.10;;;2.00;;
16878;SDS011;8556;52.218;9.884;2023-04-01T15:52:05;1.60;;;1.40;;
16878;SDS011;8556;52.218;9.884;2023-04-01T15:54:51;1.57;;;0.93;;
16878;SDS011;8556;52.218;9.884;2023-04-01T15:57:46;1.13;;;1.00;;
16878;SDS011;8556;52.218;9.884;2023-04-01T16:00:27;2.27;;;1.47;;
16878;SDS011;8556;52.218;9.884;2023-04-01T16:03:08;2.80;;;2.03;;
16878;SDS011;8556;52.218;9.884;2023-04-01T16:05:48;2.07;;;1.70;;
16878;SDS011;8556;52.218;9.884;2023-04-01T16:08:44;2.63;;;1.87;;
16878;SDS011;8556;52.218;9.884;2023-04-01T16:11:24;3.30;;;2.23;;
16878;SDS011;8556;52.218;9.884;2023-04-01T16:14:07;2.10;;;1.40;;
16878;SDS011;8556;52.218;9.884;2023-04-01T16:16:50;2.50;;;2.13;;
16878;SDS011;8556;52.218;9.884;2023-04-01T16:19:26;2.47;;;2.07;;
16878;SDS011;8556;52.218;9.884;2023-04-01T16:22:05;0.53;;;0.53;;
16878;SDS011;8556;52.218;9.884;2023-04-01T16:24:35;1.27;;;1.17;;
16878;SDS011;8556;52.218;9.884;2023-04-01T16:27:11;1.47;;;1.30;;
16878;SDS011;8556;52.218;9.884;2023-04-01T16:29:45;1.13;;;0.97;;
16878;SDS011;8556;52.218;9.884;2023-04-01T16:32:21;1.60;;;1.03;;
16878;SDS011;8556;52.218;9.884;2023-04-01T16:34:57;2.57;;;1.40;;
16878;SDS011;8556;52.218;9.884;2023-04-01T16:37:37;1.93;;;1.40;;
16878;SDS011;8556;52.218;9.884;2023-04-01T16:40:12;1.77;;;1.47;;
16878;SDS011;8556;52.218;9.884;2023-04-01T16:42:51;2.57;;;1.23;;
16878;SDS011;8556;52.218;9.884;2023-04-01T16:45:24;1.93;;;1.27;;
16878;SDS011;8556;52.218;9.884;2023-04-01T16:48:00;1.30;;;1.00;;
16878;SDS011;8556;52.218;9.884;2023-04-01T16:50:42;0.50;;;0.50;;
16878;SDS011;8556;52.218;9.884;2023-04-01T16:53:17;0.67;;;0.63;;
16878;SDS011;8556;52.218;9.884;2023-04-01T16:55:52;0.87;;;0.87;;
16878;SDS011;8556;52.218;9.884;2023-04-01T16:58:27;0.73;;;0.70;;
16878;SDS011;8556;52.218;9.884;2023-04-01T17:01:02;2.60;;;1.50;;
16878;SDS011;8556;52.218;9.884;2023-04-01T17:03:35;2.57;;;1.43;;
16878;SDS011;8556;52.218;9.884;2023-04-01T17:06:10;1.27;;;0.97;;
16878;SDS011;8556;52.218;9.884;2023-04-01T17:08:56;2.23;;;1.53;;
16878;SDS011;8556;52.218;9.884;2023-04-01T17:11:43;2.17;;;1.27;;
16878;SDS011;8556;52.218;9.884;2023-04-01T17:14:22;1.30;;;1.00;;
16878;SDS011;8556;52.218;9.884;2023-04-01T17:17:01;1.17;;;1.07;;
16878;SDS011;8556;52.218;9.884;2023-04-01T17:22:26;0.83;;;0.83;;
16878;SDS011;8556;52.218;9.884;2023-04-01T17:25:04;1.23;;;0.70;;
16878;SDS011;8556;52.218;9.884;2023-04-01T17:27:53;1.73;;;1.33;;
16878;SDS011;8556;52.218;9.884;2023-04-01T17:30:28;1.30;;;1.20;;